Time;durP1;ratioP1;P1;durP2;ratioP2;P2;SDS_P1;SDS_P2;PMS_P1;PMS_P2;Temp;Humidity;BMP_temperature;BMP_pressure;BME280_temperature;BME280_humidity;BME280_pressure;Samples;Min_cycle;Max_cycle;Signal;HPM_P1;HPM_P2
2023/05/08 00:04:37;;;;;;;6.10;5.68;;;;;;;17.43;64.21;100496.47;10168009;28;20425;-74
2023/05/08 00:09:39;;;;;;;6.05;5.45;;;;;;;17.49;64.12;100500.38;10176895;28;20103;-74
2023/05/08 00:14:40;;;;;;;7.15;6.55;;;;;;;17.32;63.94;100494.06;10165698;28;20054;-76
2023/05/08 00:19:42;;;;;;;6.63;5.68;;;;;;;17.34;64.40;100496.59;10161291;29;20400;-73
2023/05/08 00:24:43;;;;;;;5.85;5.38;;;;;;;17.34;63.86;100502.84;10163088;28;20382;-74
2023/05/08 00:29:44;;;;;;;6.15;5.55;;;;;;;17.27;63.69;100508.00;10165851;28;20281;-74
2023/05/08 00:34:46;;;;;;;6.38;5.85;;;;;;;17.21;64.13;100502.44;10162967;28;20061;-74
2023/05/08 00:39:47;;;;;;;7.40;6.00;;;;;;;17.08;63.47;100503.72;10171417;28;20177;-74
2023/05/08 00:44:48;;;;;;;6.20;5.75;;;;;;;17.13;63.68;100500.56;10164466;28;20533;-74
2023/05/08 00:49:50;;;;;;;5.20;4.80;;;;;;;17.09;63.97;100507.25;10177496;28;21277;-72
2023/05/08 00:54:52;;;;;;;5.53;5.10;;;;;;;17.13;63.74;100505.94;10167416;28;20059;-74
2023/05/08 00:59:54;;;;;;;6.10;5.60;;;;;;;17.05;63.66;100503.19;10177700;28;20243;-74
2023/05/08 01:04:56;;;;;;;5.95;5.45;;;;;;;16.93;63.45;100500.78;10158426;28;20492;-74
2023/05/08 01:09:57;;;;;;;6.65;6.05;;;;;;;16.94;63.74;100501.63;10159390;28;20048;-76
2023/05/08 01:15:13;;;;;;;5.25;4.82;;;;;;;16.89;63.72;100499.41;10154440;28;20177;-76
2023/05/08 01:20:42;;;;;;;6.78;6.28;;;;;;;16.87;63.85;100517.53;10165564;28;20055;-72
2023/05/08 01:26:05;;;;;;;5.95;5.47;;;;;;;16.86;64.05;100525.72;10159798;28;20340;-75
2023/05/08 01:31:28;;;;;;;6.10;5.60;;;;;;;16.85;63.67;100513.31;10163948;28;20756;-73
2023/05/08 01:36:44;;;;;;;6.15;5.55;;;;;;;16.83;63.91;100523.34;10165899;28;20043;-76
2023/05/08 01:41:57;;;;;;;6.22;5.63;;;;;;;16.84;63.58;100522.34;10163439;28;20394;-74
2023/05/08 01:47:05;;;;;;;5.13;4.72;;;;;;;16.79;63.36;100531.72;10167067;28;20044;-75
2023/05/08 01:52:13;;;;;;;5.32;4.93;;;;;;;16.75;63.15;100524.13;10170290;28;20694;-74
2023/05/08 01:57:17;;;;;;;5.82;5.32;;;;;;;16.82;63.17;100529.75;10158055;28;20095;-73
2023/05/08 02:02:19;;;;;;;4.85;4.53;;;;;;;16.79;63.51;100530.91;10161475;28;20697;-74
2023/05/08 02:07:22;;;;;;;6.43;5.82;;;;;;;16.76;63.18;100537.44;10161787;28;20077;-75
2023/05/08 02:12:25;;;;;;;6.60;6.00;;;;;;;16.70;62.89;100547.97;10158340;29;20070;-76
2023/05/08 02:17:29;;;;;;;6.45;6.00;;;;;;;16.48;63.49;100544.75;10163066;28;20366;-74
2023/05/08 02:22:32;;;;;;;5.78;5.28;;;;;;;16.58;63.85;100560.81;10173067;28;20059;-76
2023/05/08 02:27:35;;;;;;;6.22;5.72;;;;;;;16.58;63.71;100550.88;10166561;28;20102;-74
2023/05/08 02:32:38;;;;;;;5.97;5.47;;;;;;;16.64;63.47;100559.34;10186718;28;20205;-74
2023/05/08 02:37:45;;;;;;;5.88;5.47;;;;;;;16.60;63.86;100548.03;10169480;29;20143;-76
2023/05/08 02:42:47;;;;;;;6.43;5.82;;;;;;;16.63;63.48;100563.03;10166735;28;20191;-75
2023/05/08 02:48:03;;;;;;;6.28;5.78;;;;;;;16.50;63.53;100558.91;10163746;28;20546;-75
2023/05/08 02:53:10;;;;;;;6.53;5.95;;;;;;;16.45;63.34;100561.19;10167166;28;20051;-74
2023/05/08 02:58:17;;;;;;;6.10;5.60;;;;;;;16.48;63.31;100571.63;10164611;28;20054;-75
2023/05/08 03:03:23;;;;;;;6.30;5.18;;;;;;;16.42;63.03;100573.09;10166253;28;20702;-73
2023/05/08 03:08:29;;;;;;;7.47;6.13;;;;;;;16.40;63.04;100574.25;10165603;28;20056;-74
2023/05/08 03:13:34;;;;;;;5.93;5.38;;;;;;;16.35;63.36;100566.66;10166165;28;20074;-74
2023/05/08 03:18:43;;;;;;;6.13;5.65;;;;;;;16.32;63.33;100566.97;10167723;28;20182;-74
2023/05/08 03:23:47;;;;;;;6.43;5.93;;;;;;;16.29;63.42;100566.41;10181540;28;20052;-75
2023/05/08 03:28:50;;;;;;;6.35;5.85;;;;;;;16.19;63.63;100556.59;10168129;28;20126;-75
2023/05/08 03:33:53;;;;;;;6.15;5.65;;;;;;;16.24;64.01;100566.88;10164859;28;20457;-74
2023/05/08 03:38:55;;;;;;;6.30;5.70;;;;;;;16.26;63.80;100567.59;10168979;28;20044;-74
2023/05/08 03:43:57;;;;;;;6.65;6.15;;;;;;;16.19;63.70;100567.34;10175288;28;20354;-74
2023/05/08 03:49:02;;;;;;;6.18;5.68;;;;;;;16.17;64.23;100572.03;10162211;28;20049;-74
2023/05/08 03:54:03;;;;;;;6.70;6.10;;;;;;;16.11;64.47;100567.25;10170202;28;20147;-74
2023/05/08 03:59:28;;;;;;;6.43;5.93;;;;;;;16.13;64.71;100570.63;10167111;28;20062;-75
2023/05/08 04:04:36;;;;;;;;;;;;;;;16.17;64.85;100580.06;10164490;28;20048;-75
2023/05/08 04:09:56;;;;;;;6.35;5.85;;;;;;;16.16;65.11;100589.13;10177696;28;19923;-74
2023/05/08 04:15:04;;;;;;;6.90;6.30;;;;;;;16.04;65.37;100595.72;10166104;28;20058;-75
2023/05/08 04:20:11;;;;;;;6.72;6.22;;;;;;;16.02;65.77;100601.22;10169533;28;20053;-75
2023/05/08 04:25:15;;;;;;;7.45;6.85;;;;;;;15.93;66.81;100591.41;10171572;28;20055;-75
2023/05/08 04:30:17;;;;;;;7.85;7.18;;;;;;;15.95;67.61;100597.44;10162139;28;20142;-74
2023/05/08 04:35:18;;;;;;;7.47;6.78;;;;;;;15.94;67.50;100611.03;10162082;29;20138;-75
2023/05/08 04:40:20;;;;;;;7.82;7.13;;;;;;;15.86;67.70;100599.19;10167433;28;20751;-74
2023/05/08 04:45:21;;;;;;;7.55;6.78;;;;;;;15.88;67.61;100593.66;10165451;28;20625;-73
2023/05/08 04:50:23;;;;;;;6.82;6.32;;;;;;;15.78;67.72;100596.41;10152285;28;20055;-72
2023/05/08 04:55:24;;;;;;;8.95;8.15;;;;;;;15.78;67.76;100601.78;10166657;28;20047;-73
2023/05/08 05:00:25;;;;;;;7.00;6.43;;;;;;;15.82;67.76;100603.19;10161064;28;20047;-72
2023/05/08 05:05:27;;;;;;;8.02;7.38;;;;;;;15.78;67.85;100606.28;10148163;28;20078;-73
2023/05/08 05:10:29;;;;;;;7.65;6.95;;;;;;;15.80;67.71;100620.44;10150695;28;20464;-77
2023/05/08 05:15:30;;;;;;;8.90;7.90;;;;;;;15.80;67.27;100618.56;10145684;29;20059;-76
2023/05/08 05:20:31;;;;;;;7.03;6.45;;;;;;;15.79;67.28;100614.19;10149483;28;20061;-78
2023/05/08 05:25:33;;;;;;;6.45;5.95;;;;;;;15.83;67.49;100633.53;10146384;28;20073;-82
2023/05/08 05:30:35;;;;;;;6.53;6.00;;;;;;;15.76;67.82;100638.63;10147549;28;20697;-71
2023/05/08 05:35:36;;;;;;;7.53;6.93;;;;;;;15.81;67.63;100649.81;10145515;28;20073;-75
2023/05/08 05:40:37;;;;;;;8.25;7.20;;;;;;;15.72;67.79;100653.34;10146663;28;20423;-74
2023/05/08 05:45:39;;;;;;;6.80;6.30;;;;;;;15.76;68.09;100657.41;10162322;28;20059;-77
2023/05/08 05:50:40;;;;;;;7.68;6.72;;;;;;;15.68;68.90;100649.25;10178142;28;20130;-80
2023/05/08 05:55:42;;;;;;;6.75;6.25;;;;;;;15.69;69.16;100659.00;10171390;28;20096;-71
2023/05/08 06:00:43;;;;;;;7.00;6.50;;;;;;;15.67;68.80;100658.28;10140747;28;20060;-72
2023/05/08 06:05:46;;;;;;;8.27;6.60;;;;;;;15.65;69.15;100661.13;10144029;28;20873;-72
2023/05/08 06:10:47;;;;;;;7.07;6.47;;;;;;;15.67;68.90;100664.53;10141456;28;20064;-78
2023/05/08 06:15:49;;;;;;;6.90;6.30;;;;;;;15.66;68.84;100656.63;10142526;28;20056;-73
2023/05/08 06:20:56;;;;;;;7.90;7.10;;;;;;;15.71;69.12;100670.44;10144818;28;20059;-74
2023/05/08 06:25:57;;;;;;;7.10;6.45;;;;;;;15.63;69.72;100655.06;10147912;28;20052;-75
2023/05/08 06:30:59;;;;;;;7.20;6.68;;;;;;;15.75;69.71;100671.84;10141427;28;20636;-73
2023/05/08 06:36:00;;;;;;;7.38;6.78;;;;;;;15.73;70.10;100681.84;10139589;28;20056;-73
2023/05/08 06:41:01;;;;;;;8.07;7.28;;;;;;;15.75;70.39;100687.94;10154265;28;20075;-74
2023/05/08 06:46:03;;;;;;;7.40;6.80;;;;;;;15.69;70.80;100691.22;10143607;28;20410;-72
2023/05/08 06:51:05;;;;;;;8.75;8.05;;;;;;;15.72;71.60;100686.38;10143603;28;20062;-72
2023/05/08 06:56:06;;;;;;;7.68;7.00;;;;;;;15.66;71.73;100673.56;10142710;28;20055;-72
2023/05/08 07:01:08;;;;;;;7.13;6.43;;;;;;;15.79;71.89;100693.88;10140058;28;20056;-76
2023/05/08 07:06:09;;;;;;;7.13;6.53;;;;;;;15.79;71.89;100681.28;10144004;28;20075;-73
2023/05/08 07:11:11;;;;;;;7.70;7.10;;;;;;;15.83;72.03;100684.53;10145434;28;20071;-75
2023/05/08 07:16:13;;;;;;;8.43;7.63;;;;;;;15.81;72.17;100673.97;10148157;28;20573;-72
2023/05/08 07:21:16;;;;;;;7.45;6.75;;;;;;;15.83;72.17;100680.00;10146318;28;20052;-72
2023/05/08 07:26:18;;;;;;;7.67;7.07;;;;;;;15.83;71.82;100680.00;10157758;28;21253;-72
2023/05/08 07:31:20;;;;;;;8.10;7.30;;;;;;;15.90;72.04;100686.50;10172559;28;20083;-71
2023/05/08 07:36:21;;;;;;;7.80;7.00;;;;;;;15.95;71.75;100690.56;10162474;28;20991;-71
2023/05/08 07:41:23;;;;;;;8.30;7.50;;;;;;;15.96;71.76;100689.56;10147340;28;20458;-71
2023/05/08 07:46:24;;;;;;;12.20;11.18;;;;;;;15.98;71.43;100692.97;10149510;28;20048;-71
2023/05/08 07:51:26;;;;;;;7.03;6.50;;;;;;;16.00;71.54;100696.34;10147662;28;20134;-73
2023/05/08 07:56:27;;;;;;;7.85;7.20;;;;;;;16.03;71.73;100699.59;10150099;28;20099;-76
2023/05/08 08:01:29;;;;;;;7.70;7.00;;;;;;;16.10;71.70;100697.13;10149816;28;20060;-71
2023/05/08 08:06:30;;;;;;;8.40;7.70;;;;;;;16.11;71.68;100693.47;10146228;28;20066;-72
2023/05/08 08:11:32;;;;;;;7.75;6.93;;;;;;;16.13;71.04;100696.00;10149141;29;20051;-74
2023/05/08 08:16:33;;;;;;;8.27;7.57;;;;;;;16.02;71.16;100683.63;10154325;28;20056;-74
2023/05/08 08:21:34;;;;;;;9.23;6.68;;;;;;;16.12;70.52;100691.63;10156251;28;20059;-73
2023/05/08 08:26:36;;;;;;;9.48;6.20;;;;;;;16.18;70.50;100697.25;10154329;28;20055;-71
2023/05/08 08:31:37;;;;;;;7.25;6.60;;;;;;;16.21;70.47;100688.91;10157053;28;20059;-70
2023/05/08 08:36:39;;;;;;;7.10;6.20;;;;;;;16.24;70.34;100687.72;10155686;28;20229;-72
2023/05/08 08:41:40;;;;;;;8.00;7.25;;;;;;;16.27;70.14;100687.44;10154813;28;21497;-71
2023/05/08 08:46:52;;;;;;;7.13;6.57;;;;;;;16.34;70.60;100676.94;10159244;28;20493;-73
2023/05/08 08:52:16;;;;;;;6.65;6.10;;;;;;;16.37;70.37;100688.22;10164691;28;20047;-73
2023/05/08 08:57:19;;;;;;;;;;;;;;;16.46;70.56;100701.75;10139248;28;20509;-74
2023/05/08 09:02:22;;;;;;;8.35;7.55;;;;;;;16.46;70.52;100696.38;10146137;28;19926;-74
2023/05/08 09:07:24;;;;;;;9.50;7.03;;;;;;;16.48;69.76;100700.59;10146901;28;20139;-72
2023/05/08 09:12:26;;;;;;;8.00;7.40;;;;;;;16.50;68.96;100698.63;10149129;28;20058;-72
2023/05/08 09:17:27;;;;;;;7.45;6.85;;;;;;;16.44;69.47;100701.91;10145050;28;20075;-72
2023/05/08 09:22:29;;;;;;;8.35;7.65;;;;;;;16.43;69.29;100698.38;10143839;28;20666;-73
2023/05/08 09:27:31;;;;;;;7.35;6.65;;;;;;;16.49;69.82;100706.84;10146226;28;20068;-72
2023/05/08 09:32:34;;;;;;;7.85;7.25;;;;;;;16.51;69.86;100715.59;10146367;28;20062;-74
2023/05/08 09:37:41;;;;;;;7.75;7.15;;;;;;;16.52;70.02;100709.22;10146824;28;20059;-74
2023/05/08 09:42:44;;;;;;;8.15;7.45;;;;;;;16.50;70.79;100713.88;10145225;28;20126;-74
2023/05/08 09:47:48;;;;;;;8.13;7.43;;;;;;;16.53;71.39;100718.94;10144351;28;20048;-71
2023/05/08 09:52:50;;;;;;;7.38;6.78;;;;;;;16.61;70.99;100733.31;10147121;28;20199;-72
2023/05/08 09:57:56;;;;;;;8.20;7.50;;;;;;;16.59;71.40;100734.50;10143592;28;20055;-74
2023/05/08 10:03:00;;;;;;;8.85;8.15;;;;;;;16.58;71.43;100728.25;10140945;29;20043;-72
2023/05/08 10:08:21;;;;;;;8.82;8.13;;;;;;;16.62;71.40;100728.81;10139269;28;20044;-74
2023/05/08 10:13:22;;;;;;;8.23;7.53;;;;;;;16.66;71.55;100734.72;10141061;29;20047;-72
2023/05/08 10:18:28;;;;;;;7.45;6.85;;;;;;;16.75;71.56;100733.81;10162235;28;20441;-74
2023/05/08 10:23:33;;;;;;;8.30;7.70;;;;;;;16.84;71.22;100726.69;10158960;28;20052;-73
2023/05/08 10:28:48;;;;;;;8.60;7.78;;;;;;;16.89;71.62;100730.63;10142311;28;20059;-73
2023/05/08 10:33:54;;;;;;;12.73;11.57;;;;;;;17.05;70.88;100721.03;10163948;28;20067;-73
2023/05/08 10:38:57;;;;;;;7.78;7.07;;;;;;;17.11;68.02;100712.34;10149815;28;20159;-72
2023/05/08 10:43:59;;;;;;;7.75;6.95;;;;;;;17.16;67.75;100715.41;10151446;28;20114;-74
2023/05/08 10:49:13;;;;;;;7.95;7.25;;;;;;;17.13;67.35;100721.94;10151165;28;20092;-72
2023/05/08 10:54:20;;;;;;;9.27;7.72;;;;;;;17.19;66.69;100720.50;10141664;28;20422;-73
2023/05/08 10:59:22;;;;;;;7.07;6.32;;;;;;;17.26;67.01;100713.50;10146832;28;20131;-73
2023/05/08 11:04:24;;;;;;;8.57;7.88;;;;;;;17.45;66.37;100703.53;10150044;28;20447;-73
2023/05/08 11:09:27;;;;;;;7.35;6.75;;;;;;;17.58;66.54;100698.56;10147474;28;20056;-72
2023/05/08 11:14:30;;;;;;;7.57;6.88;;;;;;;17.91;66.45;100697.94;10147902;28;21444;-71
2023/05/08 11:19:32;;;;;;;9.13;8.32;;;;;;;18.07;65.47;100697.19;10152316;28;20059;-74
2023/05/08 11:24:35;;;;;;;9.77;8.85;;;;;;;18.14;65.10;100692.84;10151970;28;20048;-73
2023/05/08 11:29:37;;;;;;;8.37;7.67;;;;;;;18.27;65.79;100701.31;10149918;28;20503;-74
2023/05/08 11:34:42;;;;;;;8.07;7.45;;;;;;;18.49;65.56;100691.75;10158056;28;20331;-71
2023/05/08 11:39:44;;;;;;;7.78;7.05;;;;;;;18.55;65.21;100695.66;10162505;28;20490;-73
2023/05/08 11:44:46;;;;;;;8.65;7.80;;;;;;;18.55;65.06;100687.56;10147168;28;20056;-71
2023/05/08 11:49:47;;;;;;;10.27;9.38;;;;;;;18.61;65.42;100689.59;10155937;28;20047;-71
2023/05/08 11:54:49;;;;;;;8.90;8.15;;;;;;;18.66;64.93;100687.25;10145816;28;20054;-73
2023/05/08 11:59:50;;;;;;;9.35;8.45;;;;;;;18.78;64.53;100689.63;10152462;28;20056;-72
2023/05/08 12:04:53;;;;;;;8.48;7.78;;;;;;;18.83;64.77;100687.28;10151444;28;20582;-73
2023/05/08 12:09:54;;;;;;;8.75;8.02;;;;;;;18.89;64.45;100679.38;10145918;28;20156;-73
2023/05/08 12:14:56;;;;;;;8.75;8.00;;;;;;;19.07;64.28;100683.78;10147960;28;20064;-74
2023/05/08 12:20:15;;;;;;;8.05;7.45;;;;;;;19.18;64.39;100690.69;10146343;28;20362;-73
2023/05/08 12:25:17;;;;;;;9.35;8.63;;;;;;;19.39;63.25;100690.16;10150333;28;20325;-73
2023/05/08 12:30:18;;;;;;;9.55;8.82;;;;;;;19.49;62.59;100676.50;10144410;28;20062;-74
2023/05/08 12:35:20;;;;;;;9.38;8.50;;;;;;;19.60;62.74;100679.66;10145584;28;20083;-74
2023/05/08 12:40:28;;;;;;;7.75;7.15;;;;;;;19.80;61.93;100679.28;10145536;28;20075;-70
2023/05/08 12:45:32;;;;;;;9.77;8.98;;;;;;;19.98;60.21;100675.53;10143694;29;20150;-71
2023/05/08 12:50:36;;;;;;;8.88;8.07;;;;;;;20.00;60.19;100685.16;10149916;28;21279;-72
2023/05/08 12:55:38;;;;;;;;;;;;;;;20.12;59.79;100672.94;10154200;28;20048;-71
2023/05/08 13:00:50;;;;;;;8.55;7.82;;;;;;;20.27;60.00;100666.78;10139054;28;20381;-73
2023/05/08 13:05:56;;;;;;;8.45;7.65;;;;;;;20.28;58.83;100658.50;10157286;28;20054;-72
2023/05/08 13:10:59;;;;;;;8.20;7.40;;;;;;;20.31;58.71;100660.84;10159596;28;20139;-72
2023/05/08 13:16:03;;;;;;;9.45;7.95;;;;;;;20.33;58.80;100641.75;10145000;28;20067;-71
2023/05/08 13:21:04;;;;;;;7.97;7.22;;;;;;;20.49;59.74;100652.47;10149649;28;20059;-71
2023/05/08 13:26:06;;;;;;;8.52;7.70;;;;;;;20.56;58.41;100640.94;10150952;28;20490;-73
2023/05/08 13:31:07;;;;;;;8.43;7.72;;;;;;;20.63;58.43;100628.38;10149929;28;20055;-72
2023/05/08 13:36:08;;;;;;;7.38;6.72;;;;;;;20.72;58.45;100624.63;10167701;28;20134;-71
2023/05/08 13:41:10;;;;;;;7.55;6.63;;;;;;;20.64;58.62;100632.75;10146193;28;20944;-71
2023/05/08 13:46:11;;;;;;;7.65;6.95;;;;;;;20.57;58.81;100631.81;10143386;28;20048;-71
2023/05/08 13:51:13;;;;;;;7.97;7.32;;;;;;;20.51;59.04;100637.91;10147046;28;20072;-71
2023/05/08 13:56:14;;;;;;;7.13;6.53;;;;;;;20.43;59.68;100618.03;10142889;28;20044;-71
2023/05/08 14:01:16;;;;;;;7.20;6.60;;;;;;;20.46;59.63;100617.69;10144320;28;20051;-73
2023/05/08 14:06:26;;;;;;;8.70;7.80;;;;;;;20.57;59.77;100618.28;10152704;28;20166;-72
2023/05/08 14:11:28;;;;;;;8.23;7.28;;;;;;;20.66;59.47;100611.81;10144484;29;20141;-73
2023/05/08 14:16:29;;;;;;;8.05;7.35;;;;;;;20.72;58.63;100608.38;10146976;29;20501;-70
2023/05/08 14:21:31;;;;;;;10.00;8.02;;;;;;;20.75;58.10;100610.72;10152580;28;20059;-75
2023/05/08 14:26:32;;;;;;;7.78;7.18;;;;;;;20.76;59.13;100604.31;10152262;28;20518;-73
2023/05/08 14:31:34;;;;;;;8.55;7.82;;;;;;;20.69;58.98;100597.06;10157507;28;20074;-72
2023/05/08 14:36:36;;;;;;;11.55;10.45;;;;;;;20.63;58.51;100604.03;10156267;28;20056;-72
2023/05/08 14:41:38;;;;;;;8.02;7.22;;;;;;;20.57;59.17;100602.06;10153611;28;20501;-75
2023/05/08 14:46:40;;;;;;;;;;;;;;;20.58;58.16;100598.31;10158480;28;20063;-74
2023/05/08 14:51:42;;;;;;;6.95;6.25;;;;;;;20.51;58.21;100594.63;10151470;28;19937;-73
2023/05/08 14:56:44;;;;;;;7.97;7.18;;;;;;;20.52;59.17;100585.50;10153115;28;20175;-72
2023/05/08 15:02:05;;;;;;;6.90;6.28;;;;;;;20.54;58.56;100581.63;10153276;28;20067;-75
2023/05/08 15:07:07;;;;;;;7.80;7.20;;;;;;;20.54;59.43;100578.09;10150207;28;20506;-74
2023/05/08 15:12:08;;;;;;;9.68;8.75;;;;;;;20.61;59.67;100579.88;10149353;28;20056;-73
2023/05/08 15:17:10;;;;;;;6.88;6.22;;;;;;;20.55;59.19;100563.53;10151547;28;20059;-74
2023/05/08 15:22:12;;;;;;;10.10;7.03;;;;;;;20.46;59.64;100565.44;10152991;28;20051;-69
2023/05/08 15:27:14;;;;;;;6.10;5.60;;;;;;;20.38;59.71;100574.47;10151035;28;20051;-72
2023/05/08 15:32:15;;;;;;;6.20;5.47;;;;;;;20.25;59.14;100571.50;10151510;28;20056;-71
2023/05/08 15:37:16;;;;;;;28.27;25.55;;;;;;;20.14;59.78;100579.00;10150062;29;20163;-74
2023/05/08 15:42:19;;;;;;;7.15;6.55;;;;;;;20.03;60.08;100581.28;10147811;28;20063;-70
2023/05/08 15:47:21;;;;;;;6.33;5.73;;;;;;;19.97;60.52;100572.03;10147136;28;20079;-71
2023/05/08 15:52:23;;;;;;;6.70;6.20;;;;;;;19.89;61.30;100581.03;10148581;28;20407;-74
2023/05/08 15:57:25;;;;;;;7.22;6.63;;;;;;;19.85;61.77;100592.38;10163558;28;20047;-74
2023/05/08 16:02:27;;;;;;;10.05;8.80;;;;;;;19.62;62.83;100593.06;10156957;28;20749;-73
2023/05/08 16:07:28;;;;;;;7.30;6.63;;;;;;;19.59;62.77;100596.13;10152480;28;20051;-70
2023/05/08 16:12:30;;;;;;;8.05;7.45;;;;;;;19.55;63.20;100600.22;10150526;29;20051;-74
2023/05/08 16:17:31;;;;;;;7.25;6.55;;;;;;;19.55;63.34;100605.59;10145517;28;20532;-73
2023/05/08 16:22:33;;;;;;;8.35;7.65;;;;;;;19.44;63.58;100604.09;10148063;28;20116;-73
2023/05/08 16:27:35;;;;;;;8.35;7.65;;;;;;;19.26;64.38;100607.03;10148914;28;20060;-71
2023/05/08 16:32:38;;;;;;;8.02;7.32;;;;;;;19.23;64.70;100601.97;10149519;28;20055;-69
2023/05/08 16:37:40;;;;;;;7.37;6.77;;;;;;;19.31;64.52;100603.81;10145107;28;20060;-68
2023/05/08 16:42:41;;;;;;;8.07;7.38;;;;;;;19.24;65.01;100609.88;10147009;28;20055;-70
2023/05/08 16:47:42;;;;;;;7.13;6.53;;;;;;;19.14;65.25;100597.59;10147426;28;20060;-76
2023/05/08 16:52:44;;;;;;;7.68;6.95;;;;;;;19.10;65.43;100590.88;10148010;28;20114;-74
2023/05/08 16:57:45;;;;;;;7.97;7.25;;;;;;;19.13;65.38;100593.22;10147564;28;20079;-74
2023/05/08 17:02:46;;;;;;;7.20;6.60;;;;;;;19.03;65.70;100586.13;10147692;29;20540;-70
2023/05/08 17:07:48;;;;;;;7.55;6.72;;;;;;;19.05;65.75;100589.53;10150164;28;20059;-73
2023/05/08 17:12:50;;;;;;;8.32;7.53;;;;;;;19.07;65.74;100592.88;10145609;28;20227;-72
2023/05/08 17:17:54;;;;;;;8.27;7.57;;;;;;;19.04;65.72;100582.44;10147790;28;20548;-72
2023/05/08 17:22:56;;;;;;;8.52;7.70;;;;;;;19.04;65.24;100579.75;10150283;28;20076;-71
2023/05/08 17:27:59;;;;;;;9.10;7.35;;;;;;;19.08;65.46;100577.56;10157150;28;20051;-72
2023/05/08 17:33:02;;;;;;;8.38;7.65;;;;;;;19.07;64.88;100576.69;10154864;28;20072;-70
2023/05/08 17:38:03;;;;;;;8.60;7.80;;;;;;;19.04;65.42;100571.66;10146023;28;20297;-71
2023/05/08 17:43:07;;;;;;;7.97;7.28;;;;;;;19.06;65.40;100575.00;10146475;29;20304;-72
2023/05/08 17:48:08;;;;;;;9.48;8.68;;;;;;;19.05;65.21;100584.13;10143051;28;20413;-72
2023/05/08 17:53:10;;;;;;;8.68;7.88;;;;;;;19.03;65.30;100575.34;10145120;28;20061;-70
2023/05/08 17:58:11;;;;;;;8.15;7.45;;;;;;;19.02;65.37;100576.38;10141705;28;20063;-70
2023/05/08 18:03:12;;;;;;;7.97;7.38;;;;;;;19.02;65.19;100589.00;10142437;28;20511;-71
2023/05/08 18:08:14;;;;;;;9.43;8.55;;;;;;;19.02;64.71;100592.56;10142703;28;20062;-70
2023/05/08 18:13:15;;;;;;;9.50;8.60;;;;;;;18.95;64.90;100588.84;10139288;28;20048;-70
2023/05/08 18:18:16;;;;;;;10.02;9.13;;;;;;;18.92;64.88;100585.69;10144834;28;20135;-69
2023/05/08 18:23:18;;;;;;;9.80;9.07;;;;;;;18.90;65.27;100597.47;10144098;28;20269;-71
2023/05/08 18:28:19;;;;;;;9.60;8.82;;;;;;;18.83;65.71;100579.41;10143534;28;20499;-73
2023/05/08 18:33:21;;;;;;;9.40;8.50;;;;;;;18.79;65.99;100597.75;10138411;28;20070;-71
2023/05/08 18:38:22;;;;;;;8.90;8.07;;;;;;;18.68;65.96;100585.47;10146117;28;20059;-72
2023/05/08 18:43:24;;;;;;;8.75;8.00;;;;;;;18.72;66.15;100594.06;10146856;28;20087;-71
2023/05/08 18:48:26;;;;;;;8.43;7.72;;;;;;;18.69;66.54;100594.38;10140517;28;20067;-71
2023/05/08 18:53:29;;;;;;;9.35;8.50;;;;;;;18.65;66.62;100601.16;10143502;28;20121;-72
2023/05/08 18:58:30;;;;;;;8.65;7.90;;;;;;;18.62;67.23;100605.00;10142644;28;20051;-70
2023/05/08 19:03:31;;;;;;;8.55;7.85;;;;;;;18.59;67.07;100599.97;10158181;28;20449;-73
2023/05/08 19:08:33;;;;;;;9.73;8.82;;;;;;;18.60;67.14;100609.75;10155999;28;20427;-70
2023/05/08 19:13:34;;;;;;;9.20;8.50;;;;;;;18.58;67.20;100602.81;10154731;28;20040;-73
2023/05/08 19:18:36;;;;;;;9.48;8.68;;;;;;;18.59;67.32;100601.81;10152667;28;20077;-75
2023/05/08 19:23:37;;;;;;;8.68;7.97;;;;;;;18.58;67.05;100605.50;10149081;28;20051;-73
2023/05/08 19:28:38;;;;;;;8.48;7.78;;;;;;;18.58;67.14;100602.81;10151836;28;20315;-70
2023/05/08 19:33:40;;;;;;;10.05;9.02;;;;;;;18.53;67.21;100606.84;10144275;28;20569;-70
2023/05/08 19:38:41;;;;;;;10.77;9.77;;;;;;;18.49;67.48;100594.72;10150081;28;20052;-69
2023/05/08 19:43:42;;;;;;;9.35;8.52;;;;;;;18.52;67.29;100601.63;10147766;28;20048;-69
2023/05/08 19:48:44;;;;;;;10.27;9.38;;;;;;;18.47;68.04;100590.53;10149048;28;20048;-72
2023/05/08 19:53:45;;;;;;;10.23;9.27;;;;;;;18.46;68.07;100594.22;10148545;29;20052;-68
2023/05/08 19:58:46;;;;;;;10.68;9.68;;;;;;;18.39;68.26;100599.44;10149762;28;20047;-72
2023/05/08 20:03:48;;;;;;;10.20;9.20;;;;;;;18.33;68.35;100600.94;10149895;28;20083;-72
2023/05/08 20:08:49;;;;;;;10.40;9.40;;;;;;;18.29;68.78;100591.50;10166275;28;20210;-74
2023/05/08 20:13:51;;;;;;;10.23;9.43;;;;;;;18.24;68.94;100590.31;10152693;28;20056;-72
2023/05/08 20:18:52;;;;;;;10.45;9.55;;;;;;;18.18;69.36;100587.28;10152253;28;20846;-73
2023/05/08 20:23:54;;;;;;;9.88;8.98;;;;;;;18.09;69.41;100585.56;10153381;28;20138;-69
2023/05/08 20:28:56;;;;;;;11.35;10.30;;;;;;;18.12;69.77;100597.84;10149373;28;20048;-72
2023/05/08 20:33:58;;;;;;;11.52;10.48;;;;;;;18.11;70.05;100604.25;10151748;28;20147;-71
2023/05/08 20:38:59;;;;;;;11.68;10.68;;;;;;;18.02;70.19;100590.75;10150305;28;20059;-71
2023/05/08 20:44:01;;;;;;;12.02;10.82;;;;;;;18.03;70.23;100588.94;10152446;28;20055;-75
2023/05/08 20:49:02;;;;;;;12.18;11.05;;;;;;;17.97;70.70;100589.56;10148830;28;20549;-72
2023/05/08 20:54:04;;;;;;;12.27;11.18;;;;;;;17.96;70.71;100583.34;10148839;28;20087;-70
2023/05/08 20:59:06;;;;;;;13.10;11.90;;;;;;;17.93;71.16;100582.84;10146802;28;20134;-72
2023/05/08 21:04:07;;;;;;;11.55;10.65;;;;;;;17.95;70.99;100587.03;10143590;28;20166;-74
2023/05/08 21:09:09;;;;;;;11.75;10.75;;;;;;;17.89;71.46;100568.84;10145959;28;20059;-72
2023/05/08 21:14:10;;;;;;;11.40;10.20;;;;;;;17.92;71.57;100565.81;10147121;28;20174;-74
2023/05/08 21:19:16;;;;;;;12.55;11.45;;;;;;;17.89;71.63;100566.13;10157145;28;20102;-73
2023/05/08 21:24:17;;;;;;;12.90;11.68;;;;;;;17.91;71.79;100557.91;10145439;28;20059;-73
2023/05/08 21:29:19;;;;;;;13.43;12.13;;;;;;;17.85;72.23;100554.00;10140119;28;20051;-68
2023/05/08 21:34:21;;;;;;;13.30;12.10;;;;;;;17.84;72.25;100560.38;10143522;28;20119;-73
2023/05/08 21:39:22;;;;;;;11.38;10.35;;;;;;;17.82;72.49;100559.72;10145732;28;20059;-71
2023/05/08 21:44:24;;;;;;;12.32;11.13;;;;;;;17.80;72.47;100559.84;10144716;28;20641;-73
2023/05/08 21:49:25;;;;;;;12.30;11.10;;;;;;;17.77;72.51;100551.25;10146074;28;20048;-71
2023/05/08 21:54:27;;;;;;;11.95;10.90;;;;;;;17.83;72.83;100564.06;10145450;28;20131;-71
2023/05/08 21:59:28;;;;;;;12.40;11.30;;;;;;;17.79;72.89;100554.63;10148150;28;20047;-70
2023/05/08 22:04:29;;;;;;;13.50;12.20;;;;;;;17.75;72.80;100547.91;10146309;28;20055;-72
2023/05/08 22:09:31;;;;;;;13.57;12.32;;;;;;;17.73;73.11;100544.50;10140894;28;20078;-70
2023/05/08 22:14:32;;;;;;;12.93;11.82;;;;;;;17.70;73.33;100547.53;10167527;28;20051;-69
2023/05/08 22:19:33;;;;;;;13.23;12.07;;;;;;;17.67;73.48;100536.09;10163248;28;20321;-72
2023/05/08 22:24:35;;;;;;;13.43;12.27;;;;;;;17.67;73.42;100536.09;10161490;28;20460;-69
2023/05/08 22:29:36;;;;;;;13.27;12.18;;;;;;;17.63;73.55;100534.72;10163074;28;20498;-72
2023/05/08 22:34:37;;;;;;;12.68;11.57;;;;;;;17.56;73.75;100517.53;10161465;28;20135;-72
2023/05/08 22:39:39;;;;;;;12.85;11.73;;;;;;;17.56;73.96;100517.53;10156360;28;20048;-69
2023/05/08 22:44:42;;;;;;;13.40;12.18;;;;;;;17.58;73.88;100515.53;10185273;28;20484;-71
2023/05/08 22:49:43;;;;;;;13.30;12.13;;;;;;;17.59;73.98;100500.22;10170335;28;20149;-71
2023/05/08 22:54:45;;;;;;;13.32;12.23;;;;;;;17.57;74.30;100494.19;10166124;29;20413;-70
2023/05/08 22:59:46;;;;;;;12.82;11.63;;;;;;;17.62;74.23;100497.22;10165625;28;20115;-70
2023/05/08 23:04:47;;;;;;;12.75;11.65;;;;;;;17.58;74.69;100477.88;10166984;28;20047;-70
2023/05/08 23:09:49;;;;;;;13.32;12.13;;;;;;;17.61;74.50;100490.13;10169091;28;20062;-73